Time;durP1;ratioP1;P1;durP2;ratioP2;P2;SDS_P1;SDS_P2;PMS_P1;PMS_P2;Temp;Humidity;BMP_temperature;BMP_pressure;BME280_temperature;BME280_humidity;BME280_pressure;Samples;Min_cycle;Max_cycle;Signal;HPM_P1;HPM_P2
2022/03/02 00:01:52;;;;;;;6.45;3.90;;;;;;;19.17;37.57;101657.00;4986298;28;20121;-48
2022/03/02 00:04:18;;;;;;;5.57;3.45;;;;;;;19.15;37.50;101653.69;4987612;28;20110;-44
2022/03/02 00:06:43;;;;;;;5.43;3.50;;;;;;;19.14;37.47;101647.59;4987548;28;20457;-44
2022/03/02 00:09:09;;;;;;;4.65;3.70;;;;;;;19.14;37.40;101652.06;4987542;28;20072;-45
2022/03/02 00:11:34;;;;;;;4.85;3.55;;;;;;;19.13;37.30;101655.69;4987045;28;20423;-45
2022/03/02 00:14:00;;;;;;;6.40;4.15;;;;;;;19.12;37.22;101646.13;4989362;28;20022;-44
2022/03/02 00:16:28;;;;;;;6.35;3.78;;;;;;;19.12;37.29;101646.13;4987022;28;20651;-47
2022/03/02 00:18:58;;;;;;;5.10;3.53;;;;;;;19.11;37.25;101652.41;4986799;28;20038;-45
2022/03/02 00:21:23;;;;;;;5.35;3.50;;;;;;;19.10;37.23;101642.81;4986343;28;20113;-45
2022/03/02 00:23:48;;;;;;;4.32;3.13;;;;;;;19.10;37.55;101645.47;4986719;28;20582;-44
2022/03/02 00:26:14;;;;;;;5.50;2.92;;;;;;;19.09;37.58;101639.34;4986652;28;20088;-46
2022/03/02 00:28:40;;;;;;;4.32;2.90;;;;;;;19.09;37.48;101641.16;4986193;28;20088;-44
2022/03/02 00:31:06;;;;;;;5.25;3.28;;;;;;;19.09;37.58;101638.53;4989073;28;20490;-46
2022/03/02 00:33:32;;;;;;;4.10;2.70;;;;;;;19.09;37.40;101638.53;4986090;28;20037;-44
2022/03/02 00:35:57;;;;;;;4.95;2.90;;;;;;;19.08;37.39;101634.25;4986520;28;20069;-44
2022/03/02 00:38:23;;;;;;;5.32;3.67;;;;;;;19.07;37.49;101638.69;4985807;28;20034;-50
2022/03/02 00:40:49;;;;;;;5.88;3.20;;;;;;;19.07;37.38;101637.88;4986716;28;20030;-47
2022/03/02 00:43:15;;;;;;;6.43;3.30;;;;;;;19.04;37.33;101638.22;4985835;28;20026;-44
2022/03/02 00:45:40;;;;;;;3.70;2.60;;;;;;;19.04;37.31;101638.22;4989325;28;20034;-47
2022/03/02 00:48:07;;;;;;;3.60;2.75;;;;;;;19.03;37.10;101637.41;4986459;28;20057;-47
2022/03/02 00:50:34;;;;;;;3.72;3.28;;;;;;;19.03;37.28;101637.41;4985932;28;20030;-47
2022/03/02 00:53:00;;;;;;;4.88;2.80;;;;;;;19.02;37.11;101637.56;4986796;28;20034;-47
2022/03/02 00:55:26;;;;;;;5.78;3.20;;;;;;;19.03;37.26;101633.94;4986970;28;20026;-45
2022/03/02 00:57:51;;;;;;;4.25;2.75;;;;;;;19.00;37.32;101629.00;4986104;28;20441;-43
2022/03/02 01:00:18;;;;;;;3.58;2.50;;;;;;;18.99;37.44;101635.25;4986072;28;20023;-45
2022/03/02 01:02:43;;;;;;;3.00;2.17;;;;;;;18.97;37.45;101624.06;4986835;28;20498;-45
2022/03/02 01:05:09;;;;;;;3.40;2.17;;;;;;;18.96;37.35;101625.03;4983659;28;20133;-45
2022/03/02 01:07:36;;;;;;;4.82;2.75;;;;;;;18.95;37.36;101618.13;4990364;28;20331;-43
2022/03/02 01:10:04;;;;;;;4.70;2.85;;;;;;;18.95;37.32;101618.13;4989894;28;20434;-44
2022/03/02 01:12:30;;;;;;;5.03;3.00;;;;;;;18.93;37.17;101610.38;4990268;28;20044;-44
2022/03/02 01:14:56;;;;;;;4.32;2.95;;;;;;;18.93;37.01;101605.09;4993503;28;20034;-43
2022/03/02 01:17:22;;;;;;;3.38;2.78;;;;;;;18.93;36.98;101609.53;4989838;28;20093;-44
2022/03/02 01:19:48;;;;;;;4.43;3.00;;;;;;;18.92;36.88;101606.06;4990602;28;20033;-44
2022/03/02 01:22:15;;;;;;;3.03;2.38;;;;;;;18.92;36.89;101605.25;4990018;28;20030;-46
2022/03/02 01:24:41;;;;;;;3.97;2.60;;;;;;;18.91;36.86;101604.44;4990137;28;20038;-44
2022/03/02 01:27:06;;;;;;;4.82;3.08;;;;;;;18.90;36.75;101593.03;4989446;28;20053;-45
2022/03/02 01:29:34;;;;;;;4.53;2.30;;;;;;;18.89;36.66;101591.44;4982000;28;20435;-44
2022/03/02 01:32:00;;;;;;;3.25;2.33;;;;;;;18.88;36.59;101584.50;4992277;28;20038;-44
2022/03/02 01:34:26;;;;;;;3.20;2.38;;;;;;;18.88;36.85;101584.50;4989590;28;20031;-44
2022/03/02 01:36:52;;;;;;;5.45;2.58;;;;;;;18.87;36.98;101590.78;4990118;28;20034;-45
2022/03/02 01:39:17;;;;;;;3.90;2.42;;;;;;;18.87;37.09;101584.66;4990400;28;20113;-47
2022/03/02 01:41:43;;;;;;;3.17;2.20;;;;;;;18.85;37.04;101582.19;4989796;28;20058;-45
2022/03/02 01:44:08;;;;;;;3.67;2.55;;;;;;;18.84;37.10;101579.72;4990026;28;20033;-45
2022/03/02 01:46:34;;;;;;;3.08;1.90;;;;;;;18.82;37.63;101573.81;4992871;28;20050;-50
2022/03/02 01:48:59;;;;;;;7.65;2.17;;;;;;;18.81;37.61;101572.97;4989532;28;20034;-47
2022/03/02 01:51:25;;;;;;;6.82;2.17;;;;;;;18.80;37.49;101573.97;4989275;28;20078;-49
2022/03/02 01:53:51;;;;;;;2.55;1.67;;;;;;;18.77;37.48;101571.66;4989296;28;20037;-48
2022/03/02 01:56:17;;;;;;;2.22;1.48;;;;;;;18.75;37.42;101573.66;4989509;28;20131;-47
2022/03/02 01:58:45;;;;;;;4.47;2.00;;;;;;;18.74;37.31;101582.56;4988709;28;20030;-47
2022/03/02 02:01:12;;;;;;;2.72;1.73;;;;;;;18.73;37.17;101573.00;4992718;28;20027;-45
2022/03/02 02:03:38;;;;;;;5.88;1.77;;;;;;;18.74;37.42;101581.75;4988522;28;20026;-44
2022/03/02 02:06:04;;;;;;;6.68;2.25;;;;;;;18.72;37.20;101576.63;4989253;28;20061;-45
2022/03/02 02:08:30;;;;;;;2.88;1.60;;;;;;;18.70;37.22;101572.53;4989588;28;20088;-47
2022/03/02 02:13:24;;;;;;;3.15;2.30;;;;;;;18.69;37.10;101562.94;4608362;22;20059;-45
2022/03/02 02:15:50;;;;;;;2.95;1.60;;;;;;;18.67;37.07;101560.47;4990247;28;20060;-43
2022/03/02 02:18:15;;;;;;;2.80;2.00;;;;;;;18.65;37.09;101559.84;4990159;28;20628;-44
2022/03/02 02:20:41;;;;;;;4.20;2.22;;;;;;;18.64;36.90;101566.09;4989473;28;20034;-46
2022/03/02 02:23:07;;;;;;;5.43;2.38;;;;;;;18.66;37.09;101563.28;4988694;28;20414;-44
2022/03/02 02:25:33;;;;;;;2.50;1.80;;;;;;;18.67;37.01;101568.41;4989646;28;20496;-43
2022/03/02 02:27:59;;;;;;;5.18;2.42;;;;;;;18.67;37.10;101565.75;4989287;28;20057;-44
2022/03/02 02:30:26;;;;;;;5.40;2.63;;;;;;;18.68;37.17;101562.13;4989653;28;20030;-43
2022/03/02 02:32:51;;;;;;;5.10;2.38;;;;;;;18.68;37.09;101556.03;4988731;28;20105;-42
2022/03/02 02:35:17;;;;;;;6.13;1.95;;;;;;;18.67;37.05;101544.66;4989348;28;20468;-43
2022/03/02 02:37:43;;;;;;;4.50;2.15;;;;;;;18.68;37.07;101545.47;4989373;28;20137;-43
2022/03/02 02:40:17;;;;;;;1.98;1.58;;;;;;;18.66;36.97;101542.19;4989342;28;20065;-42
2022/03/02 02:42:47;;;;;;;2.58;1.88;;;;;;;18.66;36.92;101540.38;4989073;28;20034;-44
2022/03/02 02:45:17;;;;;;;2.97;2.17;;;;;;;18.67;36.85;101534.09;4989457;28;20045;-44
2022/03/02 02:47:44;;;;;;;3.35;2.22;;;;;;;18.66;36.79;101532.44;4989222;28;20031;-43
2022/03/02 02:50:21;;;;;;;2.65;1.80;;;;;;;18.66;36.72;101536.91;4988955;28;20045;-42
2022/03/02 02:52:47;;;;;;;4.45;2.00;;;;;;;18.66;37.01;101544.81;4987116;28;20042;-43
2022/03/02 02:55:14;;;;;;;3.03;2.22;;;;;;;18.67;36.72;101535.91;4988666;28;20042;-42
2022/03/02 02:57:41;;;;;;;3.05;2.00;;;;;;;18.65;36.74;101525.53;4989004;28;20101;-44
2022/03/02 03:00:11;;;;;;;2.67;1.92;;;;;;;18.65;36.78;101524.69;4987862;28;20038;-44
2022/03/02 03:02:37;;;;;;;2.97;1.70;;;;;;;18.65;36.60;101525.53;4987992;28;20052;-46
2022/03/02 03:05:03;;;;;;;2.17;1.98;;;;;;;18.64;36.72;101521.22;4988281;28;20470;-43
2022/03/02 03:07:28;;;;;;;3.33;1.65;;;;;;;18.63;36.75;101511.66;4987875;28;20418;-46
2022/03/02 03:09:54;;;;;;;2.33;1.50;;;;;;;18.63;36.72;101516.13;4987021;28;20045;-45
2022/03/02 03:12:19;;;;;;;2.30;1.50;;;;;;;18.62;36.61;101522.41;4986962;28;20103;-43
2022/03/02 03:14:45;;;;;;;3.08;1.40;;;;;;;18.60;36.59;101516.44;4988018;28;20525;-44
2022/03/02 03:17:10;;;;;;;2.75;1.45;;;;;;;18.57;36.63;101518.41;4987743;28;20441;-43
2022/03/02 03:19:35;;;;;;;1.77;1.25;;;;;;;18.55;36.72;101523.03;4986827;28;20505;-43
2022/03/02 03:22:07;;;;;;;1.85;1.13;;;;;;;18.53;36.53;101519.75;4987590;28;20052;-43
2022/03/02 03:24:34;;;;;;;1.75;1.13;;;;;;;18.53;36.51;101525.03;4987455;28;20310;-42
2022/03/02 03:26:59;;;;;;;2.50;1.60;;;;;;;18.52;36.58;101522.56;4987075;28;20038;-44
2022/03/02 03:29:25;;;;;;;2.03;1.35;;;;;;;18.50;36.46;101522.72;4986958;28;20573;-44
2022/03/02 03:31:50;;;;;;;3.20;1.55;;;;;;;18.49;36.50;101520.25;4987095;28;20033;-43
2022/03/02 03:34:16;;;;;;;2.10;1.60;;;;;;;18.47;36.54;101516.97;4986954;28;20034;-43
2022/03/02 03:36:42;;;;;;;3.95;2.03;;;;;;;18.48;36.34;101513.34;4985624;28;20096;-44
2022/03/02 03:39:08;;;;;;;3.30;1.98;;;;;;;18.49;36.49;101510.53;4987588;28;20034;-44
2022/03/02 03:41:34;;;;;;;1.73;1.42;;;;;;;18.50;36.46;101506.91;4986326;28;20113;-44
2022/03/02 03:44:00;;;;;;;2.50;1.45;;;;;;;18.51;36.23;101505.09;4987187;28;20066;-43
2022/03/02 03:46:25;;;;;;;4.25;1.90;;;;;;;18.49;36.40;101505.25;4987223;28;20057;-45
2022/03/02 03:48:51;;;;;;;1.80;1.50;;;;;;;18.49;36.29;101504.44;4987258;28;20035;-44
2022/03/02 03:51:16;;;;;;;2.20;1.30;;;;;;;18.49;36.32;101496.50;4986944;28;20031;-44
2022/03/02 03:53:42;;;;;;;2.35;1.60;;;;;;;18.48;36.37;101497.50;4987011;28;20026;-45
2022/03/02 03:56:07;;;;;;;2.35;1.40;;;;;;;18.48;36.30;101492.22;4987213;28;20394;-42
2022/03/02 03:58:33;;;;;;;3.08;1.98;;;;;;;18.46;36.30;101495.03;4987120;28;20462;-43
2022/03/02 04:00:58;;;;;;;3.28;1.75;;;;;;;18.46;36.31;101489.75;4986981;28;20117;-43
2022/03/02 04:03:25;;;;;;;4.07;1.73;;;;;;;18.46;36.21;101499.50;4986616;28;20019;-45
2022/03/02 04:05:50;;;;;;;2.33;1.48;;;;;;;18.44;36.17;101493.56;4986588;28;20497;-47
2022/03/02 04:08:15;;;;;;;2.80;1.45;;;;;;;18.42;36.34;101492.94;4986724;28;20034;-43
2022/03/02 04:10:41;;;;;;;1.92;1.20;;;;;;;18.40;36.31;101487.84;4986648;28;20535;-44
2022/03/02 04:13:07;;;;;;;2.03;1.42;;;;;;;18.39;36.22;101485.38;4986248;28;20062;-44
2022/03/02 04:15:32;;;;;;;1.95;1.42;;;;;;;18.38;36.11;101483.72;4986874;28;20041;-46
2022/03/02 04:17:58;;;;;;;2.38;1.55;;;;;;;18.37;36.03;101482.06;4986729;28;20032;-45
2022/03/02 04:20:23;;;;;;;3.58;1.75;;;;;;;18.38;35.96;101483.72;4986437;28;20105;-43
2022/03/02 04:22:49;;;;;;;1.55;1.35;;;;;;;18.37;35.85;101474.16;4986156;28;20143;-47
2022/03/02 04:25:14;;;;;;;2.45;1.38;;;;;;;18.35;35.96;101474.31;4986247;28;20064;-47
2022/03/02 04:27:40;;;;;;;2.97;1.38;;;;;;;18.35;36.01;101468.22;4986678;28;20057;-45
2022/03/02 04:30:07;;;;;;;2.25;1.55;;;;;;;18.33;35.97;101468.41;4986383;28;20068;-42
2022/03/02 04:32:33;;;;;;;2.47;1.40;;;;;;;18.33;36.11;101464.94;4986111;28;20026;-43
2022/03/02 04:34:59;;;;;;;2.67;1.30;;;;;;;18.31;35.93;101459.00;4986512;28;20026;-45
2022/03/02 04:37:24;;;;;;;2.85;1.27;;;;;;;18.30;35.91;101460.00;4986852;28;20027;-48
2022/03/02 04:39:50;;;;;;;2.10;1.48;;;;;;;18.29;36.00;101458.34;4989099;28;20026;-46
2022/03/02 04:42:16;;;;;;;2.72;1.35;;;;;;;18.30;35.86;101460.00;4990201;28;20390;-44
2022/03/02 04:44:41;;;;;;;1.77;1.30;;;;;;;18.28;35.92;101464.63;4990622;28;20101;-47
2022/03/02 04:47:07;;;;;;;2.40;1.45;;;;;;;18.26;35.71;101464.78;4989978;28;20054;-44
2022/03/02 04:49:32;;;;;;;1.77;1.20;;;;;;;18.26;35.75;101466.59;4990312;28;20038;-45
2022/03/02 04:51:58;;;;;;;1.60;1.40;;;;;;;18.26;35.87;101463.97;4990193;28;20034;-46
2022/03/02 04:57:09;;;;;;;2.78;1.30;;;;;;;18.24;35.79;101454.41;4989965;28;20427;-45
2022/03/02 04:59:35;;;;;;;2.63;1.35;;;;;;;18.25;35.93;101455.25;4989961;28;20026;-45
2022/03/02 05:02:01;;;;;;;4.00;1.50;;;;;;;18.26;35.93;101450.78;4990333;28;20037;-42
2022/03/02 05:04:26;;;;;;;2.40;1.50;;;;;;;18.27;35.83;101455.06;4990158;28;20042;-43
2022/03/02 05:06:52;;;;;;;1.77;1.20;;;;;;;18.26;35.82;101456.88;4989555;28;20030;-44
2022/03/02 05:09:17;;;;;;;2.30;1.17;;;;;;;18.27;35.92;101453.25;4989508;28;20038;-43
2022/03/02 05:11:43;;;;;;;3.90;1.30;;;;;;;18.28;35.99;101443.53;4989854;28;20026;-43
2022/03/02 05:14:08;;;;;;;1.80;0.80;;;;;;;18.32;35.91;101444.81;4990123;28;20027;-45
2022/03/02 05:16:34;;;;;;;2.08;1.40;;;;;;;18.36;35.85;101435.56;4989878;28;20048;-44
2022/03/02 05:18:59;;;;;;;3.38;1.58;;;;;;;18.41;35.77;101438.53;4990293;28;20038;-43
2022/03/02 05:21:25;;;;;;;2.03;1.40;;;;;;;18.44;35.87;101438.97;4989423;28;20026;-43
2022/03/02 05:23:50;;;;;;;2.67;1.27;;;;;;;18.47;35.84;101451.00;4989952;28;20459;-44
2022/03/02 05:26:15;;;;;;;2.30;1.30;;;;;;;18.52;35.50;101448.66;4989521;28;20037;-46
2022/03/02 05:28:41;;;;;;;2.17;1.48;;;;;;;18.54;35.53;101447.50;4988906;28;20042;-43
2022/03/02 05:31:06;;;;;;;3.22;1.30;;;;;;;18.58;35.38;101440.88;4989090;28;20034;-44
2022/03/02 05:33:32;;;;;;;2.05;1.40;;;;;;;18.61;35.48;101441.56;4989366;28;20041;-43
2022/03/02 05:35:57;;;;;;;1.90;1.10;;;;;;;18.63;35.55;101448.31;4989515;28;20034;-44
2022/03/02 05:38:23;;;;;;;3.08;1.80;;;;;;;18.66;35.54;101444.50;4989851;28;20091;-48
2022/03/02 05:40:48;;;;;;;2.72;1.50;;;;;;;18.66;35.63;101444.50;4986659;28;20121;-45
2022/03/02 05:43:13;;;;;;;2.60;1.13;;;;;;;18.66;35.55;101442.69;4989421;28;20081;-43
2022/03/02 05:45:39;;;;;;;2.08;1.00;;;;;;;18.66;35.56;101434.78;4989223;28;20432;-44
2022/03/02 05:48:04;;;;;;;2.15;1.27;;;;;;;18.68;35.55;101437.25;4989440;28;20100;-43
2022/03/02 05:50:30;;;;;;;2.05;1.40;;;;;;;18.69;35.38;101434.44;4989111;28;20113;-43
2022/03/02 05:52:55;;;;;;;3.67;1.70;;;;;;;18.73;35.38;101433.09;4988583;28;20508;-44
2022/03/02 05:55:21;;;;;;;2.50;1.15;;;;;;;18.75;35.17;101440.84;4989145;28;20107;-47
2022/03/02 05:57:46;;;;;;;2.70;1.70;;;;;;;18.79;35.16;101442.13;4989342;28;20030;-43
2022/03/02 06:00:13;;;;;;;2.75;1.50;;;;;;;18.81;34.99;101438.31;4988697;28;20052;-44
2022/03/02 06:02:39;;;;;;;5.35;2.03;;;;;;;18.83;35.00;101438.97;4983800;28;20094;-42
2022/03/02 06:05:06;;;;;;;2.20;1.30;;;;;;;18.86;35.00;101443.09;4988512;28;20161;-43
2022/03/02 06:07:31;;;;;;;2.42;1.58;;;;;;;18.89;34.97;101448.84;4987065;28;20045;-45
2022/03/02 06:09:57;;;;;;;3.15;1.55;;;;;;;18.94;34.85;101439.53;4988688;28;20476;-45
2022/03/02 06:12:23;;;;;;;4.07;1.45;;;;;;;18.95;34.86;101431.44;4986048;28;20425;-44
2022/03/02 06:14:49;;;;;;;2.80;1.23;;;;;;;18.98;34.69;101435.56;4988312;28;20030;-43
2022/03/02 06:17:14;;;;;;;2.35;1.35;;;;;;;19.01;34.81;101420.19;4986159;28;20073;-45
2022/03/02 06:19:40;;;;;;;3.33;1.50;;;;;;;19.03;34.57;101418.19;4988809;28;20030;-44
2022/03/02 06:22:06;;;;;;;2.63;1.40;;;;;;;19.06;34.62;101417.84;4986802;28;20026;-42
2022/03/02 06:24:33;;;;;;;2.20;1.30;;;;;;;19.08;34.50;101409.75;4987089;28;20162;-44
2022/03/02 06:26:58;;;;;;;2.40;1.40;;;;;;;19.09;34.51;101409.56;4986134;28;20552;-45
2022/03/02 06:29:24;;;;;;;2.13;1.10;;;;;;;19.09;34.39;101406.09;4988411;28;20034;-42
2022/03/02 06:31:50;;;;;;;2.75;1.30;;;;;;;19.09;34.51;101411.38;4987405;28;20085;-49
2022/03/02 06:34:16;;;;;;;2.83;1.40;;;;;;;19.09;34.45;101419.31;4985814;28;20068;-43
2022/03/02 06:36:41;;;;;;;2.45;1.55;;;;;;;19.09;34.41;101416.66;4985848;28;20026;-43
2022/03/02 06:39:07;;;;;;;2.03;1.15;;;;;;;19.09;34.49;101421.94;5001951;28;20048;-44
2022/03/02 06:41:51;;;;;;;3.42;1.70;;;;;;;19.09;34.47;101422.75;4987476;28;20121;-45
2022/03/02 06:44:25;;;;;;;1.92;1.50;;;;;;;19.09;34.42;101424.59;4988159;28;20725;-43
2022/03/02 06:47:13;;;;;;;1.73;1.25;;;;;;;19.09;34.35;101421.94;4986797;28;20098;-45
2022/03/02 06:49:38;;;;;;;2.25;1.20;;;;;;;19.12;34.49;101424.22;4988457;28;20088;-47
2022/03/02 06:52:06;;;;;;;3.75;1.33;;;;;;;19.14;34.59;101427.53;4987344;28;20125;-45
2022/03/02 06:54:32;;;;;;;2.05;1.17;;;;;;;19.14;34.25;101436.28;4986553;28;20042;-46
2022/03/02 06:57:00;;;;;;;2.38;1.42;;;;;;;19.16;34.32;101425.53;4986467;28;20516;-46
2022/03/02 06:59:37;;;;;;;3.60;1.27;;;;;;;19.16;34.35;101428.16;4987851;28;20074;-43
2022/03/02 07:02:04;;;;;;;3.50;1.30;;;;;;;19.17;34.31;101429.81;4983121;28;20072;-48
2022/03/02 07:04:34;;;;;;;2.17;1.23;;;;;;;19.18;34.30;101427.00;4986530;28;20109;-45
2022/03/02 07:07:02;;;;;;;2.55;1.40;;;;;;;19.18;34.28;101421.72;4985013;28;20050;-45
2022/03/02 07:09:29;;;;;;;2.20;1.13;;;;;;;19.19;34.23;101427.81;4986322;28;20038;-48
2022/03/02 07:11:54;;;;;;;2.63;1.50;;;;;;;19.19;34.26;101431.28;4986336;28;20371;-44
2022/03/02 07:14:20;;;;;;;3.33;1.73;;;;;;;19.19;34.21;101427.81;4986155;28;20046;-42
2022/03/02 07:16:46;;;;;;;2.75;1.33;;;;;;;19.19;34.29;101425.16;4986451;28;20027;-46
2022/03/02 07:19:11;;;;;;;2.08;1.23;;;;;;;19.18;34.43;101429.63;4986187;28;20030;-46
2022/03/02 07:21:43;;;;;;;2.78;1.25;;;;;;;19.19;34.45;101431.28;4987166;28;20524;-43
2022/03/02 07:24:16;;;;;;;4.20;1.45;;;;;;;19.20;34.20;101434.75;4984883;28;20048;-45
2022/03/02 07:26:44;;;;;;;2.95;1.42;;;;;;;19.21;34.20;101426.63;4986435;28;20478;-45
2022/03/02 07:29:11;;;;;;;2.20;1.30;;;;;;;19.23;34.15;101421.19;4985887;28;20396;-46
2022/03/02 07:31:37;;;;;;;2.63;1.50;;;;;;;19.26;34.06;101418.19;4986559;28;20030;-47
2022/03/02 07:34:06;;;;;;;1.95;1.15;;;;;;;19.29;34.21;101422.28;4985304;28;20121;-45
2022/03/02 07:36:32;;;;;;;3.80;1.30;;;;;;;19.30;34.14;101421.28;4983952;28;20548;-47
2022/03/02 07:38:59;;;;;;;2.58;1.60;;;;;;;19.32;34.13;101420.13;4985630;28;20452;-43
2022/03/02 07:41:25;;;;;;;2.30;1.45;;;;;;;19.33;34.06;101424.41;4985805;28;20034;-45
2022/03/02 07:43:50;;;;;;;5.50;2.13;;;;;;;19.32;34.14;101417.47;4986182;28;20042;-50
2022/03/02 07:46:16;;;;;;;2.78;1.77;;;;;;;19.31;34.12;101407.91;4985495;28;20585;-44
2022/03/02 07:48:42;;;;;;;2.72;1.38;;;;;;;19.30;34.00;101402.78;4984199;28;20050;-45
2022/03/02 07:51:09;;;;;;;1.75;1.17;;;;;;;19.28;34.02;101410.91;4986997;28;20145;-50
2022/03/02 07:53:47;;;;;;;1.95;1.38;;;;;;;19.27;34.18;101397.88;4986470;28;20097;-47
2022/03/02 07:56:14;;;;;;;1.67;0.90;;;;;;;19.26;34.25;101399.69;4985046;28;20121;-47
2022/03/02 07:58:41;;;;;;;3.50;1.20;;;;;;;19.25;34.22;101398.03;4981257;28;20026;-49
2022/03/02 08:01:08;;;;;;;1.65;1.17;;;;;;;19.24;34.41;101401.69;4984619;28;20034;-44
2022/03/02 08:03:40;;;;;;;2.13;0.98;;;;;;;19.20;34.41;101398.59;4986939;28;20157;-45
2022/03/02 08:06:07;;;;;;;2.40;1.33;;;;;;;19.19;34.50;101396.13;4986886;28;20120;-46
2022/03/02 08:08:34;;;;;;;2.45;1.15;;;;;;;19.17;34.51;101403.41;4986595;28;20038;-47
2022/03/02 08:11:01;;;;;;;2.08;1.40;;;;;;;19.15;34.52;101402.75;4985367;28;21303;-46
2022/03/02 08:13:30;;;;;;;2.83;1.20;;;;;;;19.14;34.66;101393.19;4983934;28;20482;-46
2022/03/02 08:15:55;;;;;;;2.08;0.98;;;;;;;19.12;34.60;101395.19;4983008;28;21567;-46
2022/03/02 08:18:21;;;;;;;5.63;1.10;;;;;;;19.10;34.75;101397.19;4986674;28;20030;-45
2022/03/02 08:20:52;;;;;;;1.70;1.08;;;;;;;19.08;34.89;101394.72;4985678;28;20034;-48
2022/03/02 08:23:21;;;;;;;1.80;1.20;;;;;;;19.08;34.94;101392.06;4985475;28;20594;-48
2022/03/02 08:25:50;;;;;;;2.28;1.45;;;;;;;19.07;34.87;101389.59;4981218;28;20034;-47
2022/03/02 08:28:18;;;;;;;2.15;1.27;;;;;;;19.07;34.92;101392.25;4983463;28;20351;-43
2022/03/02 08:30:45;;;;;;;2.30;1.23;;;;;;;19.05;34.82;101384.50;4983768;28;20386;-43
2022/03/02 08:33:16;;;;;;;7.68;2.20;;;;;;;19.10;35.61;101386.63;4982431;28;20356;-48
2022/03/02 08:35:42;;;;;;;3.35;1.20;;;;;;;19.16;36.11;101381.44;4984331;28;20113;-46
2022/03/02 08:38:09;;;;;;;2.50;1.05;;;;;;;19.15;36.74;101389.53;4983456;28;20113;-45
2022/03/02 08:40:37;;;;;;;4.10;1.17;;;;;;;19.13;37.24;101380.97;4984170;28;20457;-45
2022/03/02 08:43:05;;;;;;;2.53;1.40;;;;;;;19.12;37.50;101384.63;4983917;28;20049;-43
2022/03/02 08:45:32;;;;;;;2.95;1.38;;;;;;;19.11;37.41;101377.69;4986297;28;20065;-45
2022/03/02 08:48:01;;;;;;;2.20;1.10;;;;;;;19.10;37.70;101378.69;4978995;28;20125;-44
2022/03/02 08:50:27;;;;;;;5.55;1.05;;;;;;;19.10;37.69;101379.50;4982341;28;20038;-47
2022/03/02 08:52:55;;;;;;;3.35;1.05;;;;;;;19.09;37.63;101369.13;4983282;28;20125;-47
2022/03/02 08:55:21;;;;;;;4.15;1.50;;;;;;;19.09;37.63;101369.13;4986819;28;20042;-43
2022/03/02 08:57:49;;;;;;;3.28;1.00;;;;;;;19.07;37.68;101366.66;4985062;28;20426;-46
2022/03/02 09:00:15;;;;;;;7.32;1.17;;;;;;;19.09;37.71;101364.66;4978432;28;20030;-45
2022/03/02 09:02:41;;;;;;;4.07;1.35;;;;;;;19.12;37.79;101358.19;4981182;28;20030;-48
2022/03/02 09:05:07;;;;;;;1.48;0.88;;;;;;;19.10;37.39;101361.03;4985614;28;20042;-46
2022/03/02 09:07:33;;;;;;;4.95;1.30;;;;;;;19.09;37.05;101353.28;4983742;28;20038;-43
2022/03/02 09:10:00;;;;;;;8.02;1.63;;;;;;;19.09;37.09;101350.63;4983429;28;20136;-45
2022/03/02 09:12:25;;;;;;;4.80;1.67;;;;;;;19.10;36.77;101355.75;4983339;28;20042;-45
2022/03/02 09:14:51;;;;;;;4.97;1.77;;;;;;;19.11;36.40;101352.09;4979609;28;20391;-45
2022/03/02 09:17:19;;;;;;;10.35;1.30;;;;;;;19.13;35.94;101344.00;4983848;28;20034;-45
2022/03/02 09:19:45;;;;;;;6.68;1.80;;;;;;;19.10;35.47;101334.59;4984411;28;20069;-44
2022/03/02 09:22:11;;;;;;;7.13;1.77;;;;;;;19.07;33.81;101342.06;4984425;28;20026;-48
2022/03/02 09:24:38;;;;;;;6.45;1.80;;;;;;;19.01;33.13;101333.03;4985866;28;20030;-43
2022/03/02 09:27:08;;;;;;;6.20;2.03;;;;;;;19.00;32.69;101331.41;4988908;28;20194;-47
2022/03/02 09:29:36;;;;;;;6.47;1.95;;;;;;;19.00;32.82;101334.03;4986886;28;20026;-44
2022/03/02 09:32:03;;;;;;;11.70;1.90;;;;;;;19.01;33.04;101329.56;4988901;28;20120;-43
2022/03/02 09:34:33;;;;;;;11.85;1.92;;;;;;;19.01;33.15;101329.56;4985729;28;20034;-42
2022/03/02 09:36:59;;;;;;;9.48;1.90;;;;;;;18.98;33.41;101320.19;4987255;28;20076;-48
2022/03/02 09:39:27;;;;;;;9.77;1.77;;;;;;;18.97;33.52;101315.91;4988171;28;20092;-44
2022/03/02 09:42:03;;;;;;;13.00;2.65;;;;;;;18.95;33.81;101314.44;5004471;28;20030;-44
2022/03/02 09:44:36;;;;;;;6.43;1.80;;;;;;;18.96;33.85;101303.69;4988845;28;20038;-43
2022/03/02 09:47:06;;;;;;;6.63;1.65;;;;;;;18.97;33.93;101304.53;4989950;28;20042;-42
2022/03/02 09:49:34;;;;;;;5.47;1.70;;;;;;;18.98;33.98;101298.25;4989623;28;20168;-44
2022/03/02 09:52:09;;;;;;;7.35;1.60;;;;;;;18.96;34.25;101294.97;4990211;28;20034;-44
2022/03/02 09:54:37;;;;;;;3.92;1.65;;;;;;;18.97;34.42;101294.78;5004852;28;20152;-42
2022/03/02 09:57:07;;;;;;;4.93;1.50;;;;;;;18.99;34.48;101290.13;5004957;28;20100;-44
2022/03/02 09:59:38;;;;;;;5.55;1.70;;;;;;;19.00;34.71;101290.97;4983033;28;20026;-42
2022/03/02 10:02:11;;;;;;;8.10;1.48;;;;;;;19.02;34.97;101281.03;4988546;28;20066;-43
2022/03/02 10:04:40;;;;;;;7.82;2.20;;;;;;;19.02;35.10;101289.78;4987886;28;20528;-44
2022/03/02 10:07:26;;;;;;;4.93;1.35;;;;;;;18.99;35.20;101278.75;4983803;28;20038;-43
2022/03/02 10:10:02;;;;;;;13.00;1.67;;;;;;;18.96;35.37;101284.41;4987075;28;20030;-43
2022/03/02 10:12:31;;;;;;;6.78;1.92;;;;;;;18.94;35.49;101287.22;4977040;28;20121;-45
2022/03/02 10:14:56;;;;;;;6.88;1.92;;;;;;;18.94;35.50;101281.94;4987264;28;20048;-42
2022/03/02 10:17:26;;;;;;;4.75;1.35;;;;;;;18.94;35.54;101278.47;4985230;28;20125;-42
2022/03/02 10:19:54;;;;;;;8.48;1.75;;;;;;;18.93;35.49;101276.84;4987031;28;20089;-43
2022/03/02 10:22:40;;;;;;;8.20;1.88;;;;;;;18.87;35.66;101271.28;4986536;28;20062;-43
2022/03/02 10:25:09;;;;;;;4.75;1.33;;;;;;;18.88;35.75;101267.66;4988376;28;20038;-43
2022/03/02 10:27:55;;;;;;;5.60;1.90;;;;;;;18.86;35.82;101261.72;4987717;28;20041;-41
2022/03/02 10:30:20;;;;;;;5.30;1.60;;;;;;;18.86;35.98;101264.38;4985513;28;20040;-41
2022/03/02 10:32:49;;;;;;;4.47;1.15;;;;;;;18.84;36.06;101255.81;4987112;28;20034;-41
2022/03/02 10:35:21;;;;;;;5.63;1.70;;;;;;;18.84;36.10;101260.28;4985831;28;20421;-41
2022/03/02 10:38:10;;;;;;;6.45;2.03;;;;;;;18.80;36.25;101254.53;4986673;28;20053;-43
2022/03/02 10:40:37;;;;;;;4.75;2.03;;;;;;;18.82;36.24;101251.72;4981864;28;20512;-41
2022/03/02 10:43:09;;;;;;;6.68;1.95;;;;;;;18.82;36.18;101255.16;4985787;28;20046;-42
2022/03/02 10:45:49;;;;;;;5.90;1.30;;;;;;;18.79;36.21;101244.97;4987158;28;20093;-42
2022/03/02 10:48:50;;;;;;;5.15;1.77;;;;;;;18.77;36.44;101238.22;4983159;28;20147;-42
2022/03/02 10:51:17;;;;;;;8.18;2.17;;;;;;;18.78;36.42;101245.13;4986236;28;20035;-42
2022/03/02 10:53:50;;;;;;;6.13;1.40;;;;;;;18.77;36.49;101233.75;4986080;28;20049;-42
2022/03/02 10:56:19;;;;;;;6.25;1.88;;;;;;;18.78;36.52;101234.59;4988219;28;20034;-41
2022/03/02 10:58:49;;;;;;;5.18;0.98;;;;;;;18.77;36.45;101236.41;4988255;28;20080;-41
2022/03/02 11:01:17;;;;;;;7.03;2.13;;;;;;;18.76;36.48;101232.13;4987265;28;20030;-42
2022/03/02 11:03:45;;;;;;;5.43;2.20;;;;;;;18.77;36.64;101228.47;4985435;28;20125;-42
2022/03/02 11:06:11;;;;;;;5.93;1.90;;;;;;;18.76;36.66;101226.84;4987716;28;20755;-42
2022/03/02 11:08:38;;;;;;;5.95;1.55;;;;;;;18.76;36.66;101226.84;4995720;28;20757;-44
2022/03/02 11:11:07;;;;;;;8.05;2.05;;;;;;;18.75;36.54;101217.28;4979421;28;20730;-43
2022/03/02 11:13:32;;;;;;;5.53;1.58;;;;;;;18.75;36.80;101211.19;4982285;28;20038;-42
2022/03/02 11:16:01;;;;;;;8.25;1.88;;;;;;;18.76;36.87;101212.81;4986120;28;20085;-41
2022/03/02 11:18:36;;;;;;;9.43;2.33;;;;;;;18.73;36.81;101206.09;4977685;28;20031;-43
2022/03/02 11:21:04;;;;;;;4.63;1.17;;;;;;;18.75;36.73;101200.63;4981191;28;20511;-43
2022/03/02 11:23:53;;;;;;;6.32;1.65;;;;;;;18.71;37.15;101194.88;4986351;28;20080;-41
2022/03/02 11:26:28;;;;;;;5.78;1.25;;;;;;;18.73;36.97;101190.25;4980884;28;20038;-40
2022/03/02 11:29:06;;;;;;;3.85;1.00;;;;;;;18.70;37.01;101180.03;4984573;28;20429;-41
2022/03/02 11:31:54;;;;;;;2.40;1.08;;;;;;;18.69;37.10;101178.41;4978308;28;20045;-41